createdAt,value
2019-04-20T00:00:38.465Z,1023.86
2019-04-20T00:01:40.877Z,1023.82
2019-04-20T00:02:44.017Z,1023.83
2019-04-20T00:03:49.012Z,1023.81
2019-04-20T00:04:51.418Z,1023.80
2019-04-20T00:05:53.089Z,1023.80
2019-04-20T00:06:54.809Z,1023.85
2019-04-20T00:07:57.103Z,1023.76
2019-04-20T00:09:07.331Z,1023.78
2019-04-20T00:10:10.883Z,1023.79
2019-04-20T00:11:23.436Z,1023.78
2019-04-20T00:12:33.613Z,1023.78
2019-04-20T00:13:38.397Z,1023.79
2019-04-20T00:14:36.294Z,1023.76
2019-04-20T00:15:38.976Z,1023.70
2019-04-20T00:16:39.932Z,1023.77
2019-04-20T00:17:45.912Z,1023.78
2019-04-20T00:18:52.983Z,1023.77
2019-04-20T00:19:56.099Z,1023.78
2019-04-20T00:21:03.900Z,1023.79
2019-04-20T00:22:09.877Z,1023.75
2019-04-20T00:23:14.595Z,1023.72
2019-04-20T00:24:24.402Z,1023.77
2019-04-20T00:25:32.917Z,1023.68
2019-04-20T00:27:00.645Z,1023.73
2019-04-20T00:27:55.986Z,1023.74
2019-04-20T00:29:00.329Z,1023.77
2019-04-20T00:30:10.293Z,1023.78
2019-04-20T00:31:18.018Z,1023.73
2019-04-20T00:32:12.454Z,1023.69
2019-04-20T00:33:24.345Z,1023.74
2019-04-20T00:34:24.110Z,1023.72
2019-04-20T00:35:23.059Z,1023.76
2019-04-20T00:36:24.314Z,1023.67
2019-04-20T00:37:25.362Z,1023.70
2019-04-20T00:38:33.662Z,1023.71
2019-04-20T00:39:34.018Z,1023.68
2019-04-20T00:40:35.750Z,1023.67
2019-04-20T00:41:43.814Z,1023.62
2019-04-20T00:42:48.821Z,1023.70
2019-04-20T00:43:51.145Z,1023.65
2019-04-20T00:45:00.660Z,1023.66
2019-04-20T00:46:03.013Z,1023.62
2019-04-20T00:47:15.567Z,1023.62
2019-04-20T00:48:22.479Z,1023.60
2019-04-20T00:49:30.510Z,1023.60
2019-04-20T00:50:41.795Z,1023.59
2019-04-20T00:51:44.943Z,1023.61
2019-04-20T00:52:55.539Z,1023.58
2019-04-20T00:53:48.409Z,1023.59
2019-04-20T00:54:49.806Z,1023.57
2019-04-20T00:55:50.784Z,1023.61
2019-04-20T00:56:53.161Z,1023.56
2019-04-20T00:58:10.334Z,1023.55
2019-04-20T00:59:18.147Z,1023.63
2019-04-20T01:00:28.547Z,1023.53
2019-04-20T01:01:37.590Z,1023.53
2019-04-20T01:02:38.366Z,1023.58
2019-04-20T01:03:44.863Z,1023.58
2019-04-20T01:04:54.990Z,1023.56
2019-04-20T01:05:58.433Z,1023.60
2019-04-20T01:07:02.251Z,1023.57
2019-04-20T01:08:00.155Z,1023.60
2019-04-20T01:09:03.394Z,1023.58
2019-04-20T01:10:05.112Z,1023.60
2019-04-20T01:11:06.098Z,1023.62
2019-04-20T01:12:13.681Z,1023.62
2019-04-20T01:13:18.378Z,1023.60
2019-04-20T01:14:36.304Z,1023.62
2019-04-20T01:15:46.450Z,1023.59
2019-04-20T01:16:47.393Z,1023.62
2019-04-20T01:17:46.925Z,1023.56
2019-04-20T01:18:48.518Z,1023.60
2019-04-20T01:19:52.594Z,1023.62
2019-04-20T01:20:53.671Z,1023.61
2019-04-20T01:21:59.957Z,1023.60
2019-04-20T01:23:07.434Z,1023.64
2019-04-20T01:24:08.877Z,1023.66
2019-04-20T01:25:18.191Z,1023.64
2019-04-20T01:26:20.807Z,1023.63
2019-04-20T01:27:32.146Z,1023.60
2019-04-20T01:28:48.954Z,1023.64
2019-04-20T01:29:43.645Z,1023.62
2019-04-20T01:30:50.617Z,1023.57
2019-04-20T01:32:01.110Z,1023.67
2019-04-20T01:33:08.887Z,1023.66
2019-04-20T01:34:08.284Z,1023.66
2019-04-20T01:35:24.863Z,1023.74
2019-04-20T01:36:33.598Z,1023.71
2019-04-20T01:37:34.003Z,1023.65
2019-04-20T01:38:44.772Z,1023.67
2019-04-20T01:39:39.963Z,1023.70
2019-04-20T01:40:42.209Z,1023.72
2019-04-20T01:41:43.481Z,1023.70
2019-04-20T01:42:44.579Z,1023.73
2019-04-20T01:43:46.143Z,1023.72
2019-04-20T01:44:50.343Z,1023.73
2019-04-20T01:46:03.298Z,1023.73
2019-04-20T01:47:02.944Z,1023.74
2019-04-20T01:48:07.026Z,1023.75
2019-04-20T01:49:13.620Z,1023.80
2019-04-20T01:50:21.189Z,1023.79
2019-04-20T01:51:27.194Z,1023.80
2019-04-20T01:52:38.688Z,1023.81
2019-04-20T01:53:56.773Z,1023.82
2019-04-20T01:54:57.594Z,1023.77
2019-04-20T01:56:01.354Z,1023.80
2019-04-20T01:57:04.152Z,1023.86
2019-04-20T01:58:17.623Z,1023.77
2019-04-20T01:59:20.110Z,1023.79
2019-04-20T02:00:21.943Z,1023.81
2019-04-20T02:01:25.118Z,1023.77
2019-04-20T02:02:26.664Z,1023.81
2019-04-20T02:03:34.191Z,1023.78
2019-04-20T02:04:40.479Z,1023.80
2019-04-20T02:05:42.222Z,1023.75
2019-04-20T02:06:53.195Z,1023.77
2019-04-20T02:07:55.876Z,1023.73
2019-04-20T02:09:03.344Z,1023.84
2019-04-20T02:10:08.232Z,1023.76
2019-04-20T02:11:18.735Z,1023.76
2019-04-20T02:12:23.611Z,1023.80
2019-04-20T02:13:26.393Z,1023.86
2019-04-20T02:14:40.275Z,1023.72
2019-04-20T02:15:42.157Z,1023.77
2019-04-20T02:16:47.376Z,1023.78
2019-04-20T02:18:03.322Z,1023.76
2019-04-20T02:19:10.821Z,1023.82
2019-04-20T02:20:23.444Z,1023.88
2019-04-20T02:21:26.019Z,1023.88
2019-04-20T02:22:35.570Z,1023.84
2019-04-20T02:23:35.120Z,1023.84
2019-04-20T02:24:29.973Z,1023.81
2019-04-20T02:25:31.117Z,1023.82
2019-04-20T02:26:32.723Z,1023.80
2019-04-20T02:27:38.639Z,1023.84
2019-04-20T02:29:07.493Z,1023.81
2019-04-20T02:30:13.331Z,1023.76
2019-04-20T02:31:32.902Z,1023.81
2019-04-20T02:33:43.058Z,1023.76
2019-04-20T02:34:49.160Z,1023.81
2019-04-20T02:36:04.568Z,1023.77
2019-04-20T02:37:14.163Z,1023.82
2019-04-20T02:39:28.743Z,1023.88
2019-04-20T02:40:27.000Z,1023.83
2019-04-20T02:41:36.102Z,1023.84
2019-04-20T02:45:57.417Z,1023.81
2019-04-20T02:48:23.535Z,1023.86
2019-04-20T02:50:41.694Z,1023.88
2019-04-20T02:51:52.746Z,1023.86
2019-04-20T02:53:11.431Z,1023.85
2019-04-20T02:54:12.949Z,1023.86
2019-04-20T02:55:10.979Z,1023.94
2019-04-20T02:57:33.560Z,1023.89
2019-04-20T02:58:32.797Z,1023.89
2019-04-20T02:59:54.274Z,1023.83
2019-04-20T03:00:33.908Z,1023.86
2019-04-20T03:01:36.391Z,1023.88
2019-04-20T03:02:41.538Z,1023.85
2019-04-20T03:03:37.653Z,1023.83
2019-04-20T03:04:44.174Z,1023.89
2019-04-20T03:06:00.141Z,1023.84
2019-04-20T03:07:05.451Z,1023.82
2019-04-20T03:08:13.580Z,1023.88
2019-04-20T03:09:25.651Z,1023.86
2019-04-20T03:10:24.992Z,1023.78
2019-04-20T03:11:49.879Z,1023.78
2019-04-20T03:12:44.853Z,1023.84
2019-04-20T03:13:53.140Z,1023.79
2019-04-20T03:14:52.772Z,1023.94
2019-04-20T03:16:06.041Z,1023.85
2019-04-20T03:17:15.359Z,1023.86
2019-04-20T03:18:13.827Z,1023.84
2019-04-20T03:19:17.445Z,1023.88
2019-04-20T03:20:27.108Z,1023.90
2019-04-20T03:21:37.972Z,1023.90
2019-04-20T03:23:07.345Z,1023.89
2019-04-20T03:23:52.644Z,1023.88
2019-04-20T03:24:59.529Z,1023.94
2019-04-20T03:26:09.523Z,1023.87
2019-04-20T03:27:07.220Z,1023.90
2019-04-20T03:28:16.719Z,1023.90
2019-04-20T03:29:17.908Z,1023.85
2019-04-20T03:31:15.693Z,1023.87
2019-04-20T03:31:54.145Z,1023.86
2019-04-20T03:34:13.413Z,1023.84
2019-04-20T03:36:12.487Z,1023.88
2019-04-20T03:37:15.646Z,1023.90
2019-04-20T03:38:24.581Z,1023.85
2019-04-20T03:39:23.349Z,1023.92
2019-04-20T03:40:24.505Z,1023.89
2019-04-20T03:41:25.984Z,1023.90
2019-04-20T03:42:24.518Z,1023.81
2019-04-20T03:43:24.990Z,1023.84
2019-04-20T03:44:27.844Z,1023.82
2019-04-20T03:45:39.219Z,1023.89
2019-04-20T03:46:45.525Z,1023.91
2019-04-20T03:47:58.771Z,1023.84
2019-04-20T03:49:04.521Z,1023.90
2019-04-20T03:50:18.593Z,1023.87
2019-04-20T03:51:30.593Z,1023.88
2019-04-20T03:52:27.432Z,1023.88
2019-04-20T03:53:34.408Z,1023.95
2019-04-20T03:54:34.664Z,1023.82
2019-04-20T03:55:44.486Z,1023.91
2019-04-20T03:56:54.772Z,1023.96
2019-04-20T03:58:03.201Z,1023.92
2019-04-20T03:59:04.663Z,1023.94
2019-04-20T04:00:16.196Z,1023.92
2019-04-20T04:01:27.503Z,1023.92
2019-04-20T04:02:42.759Z,1023.91
2019-04-20T04:03:45.948Z,1023.94
2019-04-20T04:05:43.806Z,1023.96
2019-04-20T04:06:42.502Z,1023.94
2019-04-20T04:07:46.779Z,1023.94
2019-04-20T04:09:02.726Z,1023.93
2019-04-20T04:10:10.979Z,1023.97
2019-04-20T04:11:16.384Z,1023.98
2019-04-20T04:12:17.743Z,1023.91
2019-04-20T04:13:14.705Z,1023.95
2019-04-20T04:14:15.740Z,1023.90
2019-04-20T04:15:16.871Z,1023.93
2019-04-20T04:16:21.622Z,1023.92
2019-04-20T04:17:28.774Z,1023.91
2019-04-20T04:18:35.354Z,1023.94
2019-04-20T04:19:39.759Z,1023.92
2019-04-20T04:20:49.789Z,1023.94
2019-04-20T04:22:05.037Z,1023.96
2019-04-20T04:23:10.520Z,1023.87
2019-04-20T04:24:17.028Z,1023.95
2019-04-20T04:25:24.967Z,1024.00
2019-04-20T04:26:34.012Z,1023.97
2019-04-20T04:27:49.290Z,1023.96
2019-04-20T04:28:51.629Z,1023.94
2019-04-20T04:30:01.733Z,1023.94
2019-04-20T04:31:12.175Z,1023.90
2019-04-20T04:32:32.857Z,1024.00
2019-04-20T04:34:34.995Z,1023.94
2019-04-20T04:35:32.347Z,1023.95
2019-04-20T04:36:50.108Z,1023.94
2019-04-20T04:37:53.546Z,1023.99
2019-04-20T04:39:05.426Z,1023.98
2019-04-20T04:40:16.220Z,1023.96
2019-04-20T04:41:18.248Z,1023.93
2019-04-20T04:42:22.606Z,1023.94
2019-04-20T04:43:25.437Z,1023.97
2019-04-20T04:44:27.758Z,1023.99
2019-04-20T04:45:23.722Z,1024.08
2019-04-20T04:46:26.793Z,1024.03
2019-04-20T04:47:28.449Z,1024.06
2019-04-20T04:48:35.101Z,1024.06
2019-04-20T04:49:40.982Z,1024.03
2019-04-20T04:50:48.355Z,1024.05
2019-04-20T04:51:58.558Z,1024.08
2019-04-20T04:53:04.480Z,1024.12
2019-04-20T04:54:12.840Z,1024.06
2019-04-20T04:55:22.373Z,1024.09
2019-04-20T04:56:18.051Z,1024.11
2019-04-20T04:57:20.603Z,1024.08
2019-04-20T04:58:21.623Z,1024.07
2019-04-20T04:59:23.439Z,1024.11
2019-04-20T05:00:28.179Z,1024.11
2019-04-20T05:01:33.721Z,1024.11
2019-04-20T05:02:41.867Z,1024.15
2019-04-20T05:04:12.758Z,1024.10
2019-04-20T05:05:10.097Z,1024.12
2019-04-20T05:06:12.405Z,1024.16
2019-04-20T05:07:16.811Z,1024.20
2019-04-20T05:08:15.453Z,1024.14
2019-04-20T05:09:17.643Z,1024.15
2019-04-20T05:10:20.736Z,1024.18
2019-04-20T05:11:21.758Z,1024.21
2019-04-20T05:12:26.254Z,1024.19
2019-04-20T05:13:37.049Z,1024.19
2019-04-20T05:14:47.148Z,1024.16
2019-04-20T05:15:57.342Z,1024.19
2019-04-20T05:17:04.568Z,1024.17
2019-04-20T05:18:16.442Z,1024.17
2019-04-20T05:19:24.750Z,1024.19
2019-04-20T05:20:22.034Z,1024.25
2019-04-20T05:21:30.882Z,1024.23
2019-04-20T05:22:42.842Z,1024.29
2019-04-20T05:23:37.317Z,1024.28
2019-04-20T05:24:51.826Z,1024.28
2019-04-20T05:26:05.436Z,1024.27
2019-04-20T05:27:07.246Z,1024.33
2019-04-20T05:28:09.415Z,1024.29
2019-04-20T05:29:07.944Z,1024.28
2019-04-20T05:30:05.727Z,1024.26
2019-04-20T05:31:08.465Z,1024.23
2019-04-20T05:32:16.387Z,1024.28
2019-04-20T05:33:27.805Z,1024.32
2019-04-20T05:34:45.255Z,1024.28
2019-04-20T05:35:51.240Z,1024.25
2019-04-20T05:36:56.353Z,1024.24
2019-04-20T05:38:06.667Z,1024.31
2019-04-20T05:39:16.101Z,1024.29
2019-04-20T05:40:16.470Z,1024.25
2019-04-20T05:41:21.322Z,1024.28
2019-04-20T05:42:32.789Z,1024.25
2019-04-20T05:43:31.592Z,1024.24
2019-04-20T05:44:44.304Z,1024.26
2019-04-20T05:45:41.427Z,1024.24
2019-04-20T05:46:59.504Z,1024.23
2019-04-20T05:47:58.625Z,1024.21
2019-04-20T05:49:11.816Z,1024.24
2019-04-20T05:50:05.015Z,1024.25
2019-04-20T05:51:25.508Z,1024.24
2019-04-20T05:53:35.416Z,1024.28
2019-04-20T05:55:43.120Z,1024.23
2019-04-20T05:56:50.154Z,1024.22
2019-04-20T05:58:06.978Z,1024.25
2019-04-20T05:59:09.426Z,1024.23
2019-04-20T06:00:15.998Z,1024.20
2019-04-20T06:01:20.498Z,1024.28
2019-04-20T06:02:27.342Z,1024.21
2019-04-20T06:03:29.080Z,1024.23
2019-04-20T06:04:54.565Z,1024.19
2019-04-20T06:05:54.363Z,1024.23
2019-04-20T06:06:52.085Z,1024.23
2019-04-20T06:07:53.479Z,1024.25
2019-04-20T06:10:14.865Z,1024.25
2019-04-20T06:11:23.797Z,1024.27
2019-04-20T06:12:28.570Z,1024.26
2019-04-20T06:13:22.041Z,1024.24
2019-04-20T06:14:28.600Z,1024.23
2019-04-20T06:15:43.279Z,1024.25
2019-04-20T06:16:52.745Z,1024.21
2019-04-20T06:17:55.401Z,1024.25
2019-04-20T06:19:10.058Z,1024.22
2019-04-20T06:20:13.981Z,1024.22
2019-04-20T06:21:26.609Z,1024.24
2019-04-20T06:22:28.518Z,1024.23
2019-04-20T06:23:34.308Z,1024.21
2019-04-20T06:24:39.891Z,1024.29
2019-04-20T06:25:44.037Z,1024.26
2019-04-20T06:26:56.035Z,1024.22
2019-04-20T06:27:52.424Z,1024.27
2019-04-20T06:28:51.879Z,1024.28
2019-04-20T06:30:00.769Z,1024.28
2019-04-20T06:31:16.070Z,1024.28
2019-04-20T06:32:28.837Z,1024.27
2019-04-20T06:33:38.657Z,1024.33
2019-04-20T06:35:54.615Z,1024.33
2019-04-20T06:36:47.200Z,1024.35
2019-04-20T06:38:03.190Z,1024.32
2019-04-20T06:39:01.979Z,1024.34
2019-04-20T06:40:22.097Z,1024.30
2019-04-20T06:41:21.574Z,1024.32
2019-04-20T06:42:19.306Z,1024.33
2019-04-20T06:43:30.425Z,1024.29
2019-04-20T06:44:31.927Z,1024.21
2019-04-20T06:45:49.575Z,1024.26
2019-04-20T06:46:47.177Z,1024.31
2019-04-20T06:47:51.519Z,1024.28
2019-04-20T06:49:04.097Z,1024.27
2019-04-20T06:50:01.481Z,1024.26
2019-04-20T06:51:04.652Z,1024.26
2019-04-20T06:52:23.657Z,1024.27
2019-04-20T06:53:25.643Z,1024.27
2019-04-20T06:54:15.864Z,1024.34
2019-04-20T06:55:38.266Z,1024.32
2019-04-20T06:56:45.512Z,1024.37
2019-04-20T06:57:44.981Z,1024.33
2019-04-20T06:59:02.222Z,1024.35
2019-04-20T06:59:59.629Z,1024.40
2019-04-20T07:01:05.612Z,1024.38
2019-04-20T07:02:22.263Z,1024.34
2019-04-20T07:03:30.564Z,1024.39
2019-04-20T07:05:31.756Z,1024.44
2019-04-20T07:06:50.855Z,1024.42
2019-04-20T07:07:50.493Z,1024.48
2019-04-20T07:11:04.339Z,1024.36
2019-04-20T07:12:09.316Z,1024.38
2019-04-20T07:13:11.538Z,1024.36
2019-04-20T07:14:08.355Z,1024.36
2019-04-20T07:15:23.165Z,1024.45
2019-04-20T07:16:34.919Z,1024.29
2019-04-20T07:18:53.191Z,1024.39
2019-04-20T07:19:50.217Z,1024.41
2019-04-20T07:21:01.854Z,1024.37
2019-04-20T07:22:22.718Z,1024.37
2019-04-20T07:23:21.378Z,1024.36
2019-04-20T07:24:25.165Z,1024.37
2019-04-20T07:25:32.076Z,1024.42
2019-04-20T07:26:37.330Z,1024.40
2019-04-20T07:27:41.480Z,1024.40
2019-04-20T07:28:55.879Z,1024.38
2019-04-20T07:30:10.677Z,1024.41
2019-04-20T07:31:01.686Z,1024.37
2019-04-20T07:32:01.760Z,1024.37
2019-04-20T07:33:15.639Z,1024.40
2019-04-20T07:34:20.362Z,1024.44
2019-04-20T07:35:26.346Z,1024.38
2019-04-20T07:36:39.939Z,1024.43
2019-04-20T07:38:50.034Z,1024.43
2019-04-20T07:39:53.915Z,1024.49
2019-04-20T07:40:56.201Z,1024.46
2019-04-20T07:42:08.499Z,1024.47
2019-04-20T07:43:07.897Z,1024.51
2019-04-20T07:44:18.328Z,1024.48
2019-04-20T07:46:41.218Z,1024.52
2019-04-20T07:47:40.611Z,1024.48
2019-04-20T07:48:42.226Z,1024.41
2019-04-20T07:49:45.847Z,1024.45
2019-04-20T07:50:51.182Z,1024.43
2019-04-20T07:51:45.544Z,1024.36
2019-04-20T07:53:07.473Z,1024.32
2019-04-20T07:54:23.222Z,1024.40
2019-04-20T07:56:30.550Z,1024.42
2019-04-20T07:57:32.971Z,1024.39
2019-04-20T07:58:30.511Z,1024.39
2019-04-20T07:59:39.716Z,1024.41
2019-04-20T08:01:05.949Z,1024.35
2019-04-20T08:02:10.526Z,1024.37
2019-04-20T08:03:11.696Z,1024.33
2019-04-20T08:04:13.004Z,1024.29
2019-04-20T08:05:10.742Z,1024.38
2019-04-20T08:06:14.304Z,1024.30
2019-04-20T08:07:14.502Z,1024.29
2019-04-20T08:08:32.868Z,1024.31
2019-04-20T08:09:34.165Z,1024.29
2019-04-20T08:10:47.499Z,1024.27
2019-04-20T08:12:03.243Z,1024.31
2019-04-20T08:13:11.088Z,1024.16
2019-04-20T08:14:12.153Z,1024.23
2019-04-20T08:15:27.089Z,1024.22
2019-04-20T08:16:33.248Z,1024.22
2019-04-20T08:17:46.757Z,1024.19
2019-04-20T08:18:40.014Z,1024.22
2019-04-20T08:19:41.066Z,1024.20
2019-04-20T08:20:45.059Z,1024.19
2019-04-20T08:21:51.994Z,1024.20
2019-04-20T08:22:58.828Z,1024.18
2019-04-20T08:24:07.472Z,1024.26
2019-04-20T08:25:08.918Z,1024.20
2019-04-20T08:26:09.017Z,1024.19
2019-04-20T08:27:09.359Z,1024.15
2019-04-20T08:28:20.832Z,1024.10
2019-04-20T08:29:36.639Z,1024.18
2019-04-20T08:30:41.315Z,1024.10
2019-04-20T08:31:44.916Z,1024.16
2019-04-20T08:32:53.940Z,1024.09
2019-04-20T08:34:15.194Z,1024.08
2019-04-20T08:35:15.440Z,1024.14
2019-04-20T08:36:22.811Z,1024.14
2019-04-20T08:37:22.261Z,1024.14
2019-04-20T08:39:07.105Z,1024.15
2019-04-20T08:39:51.142Z,1024.10
2019-04-20T08:40:43.579Z,1024.11
2019-04-20T08:41:58.948Z,1024.07
2019-04-20T08:43:03.331Z,1024.15
2019-04-20T08:44:13.280Z,1024.13
2019-04-20T08:45:33.159Z,1024.13
2019-04-20T08:46:12.154Z,1024.17
2019-04-20T08:47:33.646Z,1024.13
2019-04-20T08:48:34.532Z,1024.12
2019-04-20T08:50:00.128Z,1024.11
2019-04-20T08:50:45.121Z,1024.05
2019-04-20T08:51:55.754Z,1024.10
2019-04-20T08:53:12.795Z,1024.09
2019-04-20T08:53:57.653Z,1024.08
2019-04-20T08:55:04.958Z,1024.11
2019-04-20T08:56:09.865Z,1024.13
2019-04-20T08:57:04.539Z,1024.04
2019-04-20T08:58:05.404Z,1024.06
2019-04-20T08:59:06.745Z,1024.03
2019-04-20T09:00:09.023Z,1024.04
2019-04-20T09:01:14.347Z,1024.04
2019-04-20T09:02:18.537Z,1024.05
2019-04-20T09:03:25.395Z,1024.07
2019-04-20T09:04:38.370Z,1024.00
2019-04-20T09:05:42.456Z,1023.98
2019-04-20T09:06:52.153Z,1023.96
2019-04-20T09:07:56.575Z,1023.98
2019-04-20T09:09:19.488Z,1023.88
2019-04-20T09:10:25.680Z,1024.00
2019-04-20T09:11:21.909Z,1023.95
2019-04-20T09:12:26.751Z,1023.89
2019-04-20T09:13:26.903Z,1023.92
2019-04-20T09:14:25.622Z,1023.95
2019-04-20T09:15:27.861Z,1023.92
2019-04-20T09:16:34.819Z,1023.97
2019-04-20T09:17:45.205Z,1023.97
2019-04-20T09:18:50.257Z,1023.96
2019-04-20T09:19:55.859Z,1023.90
2019-04-20T09:21:01.283Z,1023.92
2019-04-20T09:22:12.156Z,1023.94
2019-04-20T09:23:22.281Z,1023.97
2019-04-20T09:24:36.409Z,1023.95
2019-04-20T09:25:54.552Z,1023.93
2019-04-20T09:26:43.193Z,1023.96
2019-04-20T09:27:40.768Z,1023.94
2019-04-20T09:28:55.687Z,1023.99
2019-04-20T09:30:04.595Z,1024.03
2019-04-20T09:31:09.558Z,1024.01
2019-04-20T09:32:19.438Z,1024.07
2019-04-20T09:33:22.584Z,1024.05
2019-04-20T09:34:25.932Z,1024.05
2019-04-20T09:35:39.030Z,1024.00
2019-04-20T09:36:38.628Z,1023.99
2019-04-20T09:37:51.126Z,1023.99
2019-04-20T09:38:47.800Z,1024.04
2019-04-20T09:40:02.425Z,1024.05
2019-04-20T09:41:09.150Z,1024.02
2019-04-20T09:42:01.522Z,1024.00
2019-04-20T09:43:04.478Z,1023.95
2019-04-20T09:44:05.031Z,1023.89
2019-04-20T09:45:06.569Z,1023.91
2019-04-20T09:46:10.153Z,1023.90
2019-04-20T09:47:12.329Z,1023.90
2019-04-20T09:48:19.927Z,1023.90
2019-04-20T09:49:33.111Z,1023.95
2019-04-20T09:50:44.957Z,1023.93
2019-04-20T09:51:50.017Z,1023.98
2019-04-20T09:52:57.125Z,1023.86
2019-04-20T09:53:54.853Z,1023.87
2019-04-20T09:55:06.968Z,1023.90
2019-04-20T09:56:18.231Z,1023.86
2019-04-20T09:57:25.385Z,1023.87
2019-04-20T09:58:21.265Z,1023.84
2019-04-20T09:59:40.086Z,1023.84
2019-04-20T10:00:45.009Z,1023.85
2019-04-20T10:01:39.539Z,1023.86
2019-04-20T10:02:39.286Z,1023.78
2019-04-20T10:03:40.859Z,1023.84
2019-04-20T10:04:41.796Z,1023.79
2019-04-20T10:05:43.402Z,1023.78
2019-04-20T10:06:43.918Z,1023.80
2019-04-20T10:07:48.404Z,1023.78
2019-04-20T10:08:55.918Z,1023.77
2019-04-20T10:09:57.854Z,1023.79
2019-04-20T10:10:59.472Z,1023.79
2019-04-20T10:11:59.994Z,1023.82
2019-04-20T10:13:00.594Z,1023.81
2019-04-20T10:14:01.994Z,1023.77
2019-04-20T10:15:11.666Z,1023.77
2019-04-20T10:16:08.998Z,1023.79
2019-04-20T10:17:09.731Z,1023.74
2019-04-20T10:18:10.266Z,1023.77
2019-04-20T10:19:11.988Z,1023.70
2019-04-20T10:20:20.827Z,1023.72
2019-04-20T10:21:20.115Z,1023.79
2019-04-20T10:22:20.607Z,1023.73
2019-04-20T10:23:21.093Z,1023.73
2019-04-20T10:24:21.543Z,1023.76
2019-04-20T10:25:22.567Z,1023.71
2019-04-20T10:26:23.071Z,1023.73
2019-04-20T10:27:24.285Z,1023.71
2019-04-20T10:28:25.625Z,1023.69
2019-04-20T10:29:26.266Z,1023.73
2019-04-20T10:30:26.727Z,1023.63
2019-04-20T10:31:28.574Z,1023.67
2019-04-20T10:32:36.287Z,1023.59
2019-04-20T10:33:35.572Z,1023.64
2019-04-20T10:34:36.798Z,1023.65
2019-04-20T10:35:37.327Z,1023.72
2019-04-20T10:36:37.778Z,1023.68
2019-04-20T10:37:39.677Z,1023.68
2019-04-20T10:38:40.284Z,1023.62
2019-04-20T10:39:40.735Z,1023.67
2019-04-20T10:40:51.103Z,1023.66
2019-04-20T10:41:52.586Z,1023.62
2019-04-20T10:42:55.174Z,1023.65
2019-04-20T10:43:58.661Z,1023.59
2019-04-20T10:45:00.659Z,1023.66
2019-04-20T10:46:02.852Z,1023.59
2019-04-20T10:47:04.938Z,1023.60
2019-04-20T10:48:05.524Z,1023.65
2019-04-20T10:49:07.652Z,1023.65
2019-04-20T10:50:09.258Z,1023.57
2019-04-20T10:51:10.679Z,1023.59
2019-04-20T10:52:11.676Z,1023.60
2019-04-20T10:53:12.180Z,1023.56
2019-04-20T10:54:12.663Z,1023.52
2019-04-20T10:55:14.566Z,1023.49
2019-04-20T10:56:15.840Z,1023.61
2019-04-20T10:57:17.449Z,1023.60
2019-04-20T10:58:18.015Z,1023.61
2019-04-20T10:59:19.348Z,1023.58
2019-04-20T11:00:19.879Z,1023.61
2019-04-20T11:01:20.337Z,1023.57
2019-04-20T11:02:21.568Z,1023.55
2019-04-20T11:03:22.783Z,1023.53
2019-04-20T11:04:23.318Z,1023.56
2019-04-20T11:05:24.491Z,1023.52
2019-04-20T11:06:24.999Z,1023.54
2019-04-20T11:07:26.437Z,1023.42
2019-04-20T11:08:26.993Z,1023.48
2019-04-20T11:09:28.944Z,1023.53
2019-04-20T11:10:46.161Z,1023.53
2019-04-20T11:11:37.081Z,1023.56
2019-04-20T11:12:38.138Z,1023.48
2019-04-20T11:13:39.384Z,1023.44
2019-04-20T11:14:43.473Z,1023.52
2019-04-20T11:15:44.700Z,1023.48
2019-04-20T11:16:46.562Z,1023.45
2019-04-20T11:17:47.189Z,1023.42
2019-04-20T11:18:47.718Z,1023.45
2019-04-20T11:19:49.420Z,1023.44
2019-04-20T11:20:51.109Z,1023.39
2019-04-20T11:21:52.370Z,1023.42
2019-04-20T11:22:53.006Z,1023.42
2019-04-20T11:23:54.256Z,1023.42
2019-04-20T11:24:54.857Z,1023.42
2019-04-20T11:25:55.983Z,1023.39
2019-04-20T11:26:56.632Z,1023.43
2019-04-20T11:27:58.430Z,1023.37
2019-04-20T11:29:00.014Z,1023.44
2019-04-20T11:30:00.488Z,1023.37
2019-04-20T11:31:01.896Z,1023.30
2019-04-20T11:32:03.120Z,1023.37
2019-04-20T11:33:04.408Z,1023.35
2019-04-20T11:34:05.998Z,1023.25
2019-04-20T11:35:14.129Z,1023.31
2019-04-20T11:36:13.037Z,1023.33
2019-04-20T11:37:13.596Z,1023.35
2019-04-20T11:38:17.004Z,1023.39
2019-04-20T11:39:18.839Z,1023.26
2019-04-20T11:40:19.327Z,1023.26
2019-04-20T11:41:25.593Z,1023.22
2019-04-20T11:42:26.239Z,1023.30
2019-04-20T11:43:26.683Z,1023.26
2019-04-20T11:44:30.293Z,1023.22
2019-04-20T11:45:33.018Z,1023.26
2019-04-20T11:46:34.556Z,1023.20
2019-04-20T11:47:35.659Z,1023.19
2019-04-20T11:48:37.216Z,1023.18
2019-04-20T11:49:37.901Z,1023.10
2019-04-20T11:50:39.771Z,1023.15
2019-04-20T11:51:41.432Z,1023.10
2019-04-20T11:52:45.877Z,1023.06
2019-04-20T11:53:48.471Z,1023.07
2019-04-20T11:54:48.952Z,1023.12
2019-04-20T11:55:49.492Z,1023.08
2019-04-20T11:56:51.135Z,1023.05
2019-04-20T11:57:51.698Z,1023.07
2019-04-20T11:58:53.138Z,1023.05
2019-04-20T11:59:54.918Z,1023.10
2019-04-20T12:01:02.941Z,1023.19
2019-04-20T12:02:04.666Z,1023.25
2019-04-20T12:03:16.089Z,1023.31
2019-04-20T12:04:26.158Z,1023.23
2019-04-20T12:05:31.587Z,1023.31
2019-04-20T12:06:26.582Z,1023.33
2019-04-20T12:07:27.058Z,1023.37
2019-04-20T12:08:27.595Z,1023.36
2019-04-20T12:09:29.240Z,1023.30
2019-04-20T12:10:31.391Z,1023.37
2019-04-20T12:11:46.793Z,1023.23
2019-04-20T12:12:42.471Z,1023.30
2019-04-20T12:13:45.131Z,1023.27
2019-04-20T12:14:46.408Z,1023.32
2019-04-20T12:15:47.702Z,1023.33
2019-04-20T12:16:48.335Z,1023.21
2019-04-20T12:17:49.511Z,1023.37
2019-04-20T12:18:50.455Z,1023.32
2019-04-20T12:19:53.001Z,1023.31
2019-04-20T12:20:54.798Z,1023.34
2019-04-20T12:21:55.811Z,1023.30
2019-04-20T12:22:56.394Z,1023.35
2019-04-20T12:23:58.243Z,1023.29
2019-04-20T12:25:00.329Z,1023.21
2019-04-20T12:26:02.031Z,1023.28
2019-04-20T12:27:02.940Z,1023.20
2019-04-20T12:28:03.930Z,1023.27
2019-04-20T12:29:05.854Z,1023.23
2019-04-20T12:30:07.785Z,1023.19
2019-04-20T12:31:13.033Z,1023.24
2019-04-20T12:32:14.858Z,1023.22
2019-04-20T12:33:15.598Z,1023.21
2019-04-20T12:34:16.343Z,1023.20
2019-04-20T12:35:18.105Z,1023.27
2019-04-20T12:36:18.629Z,1023.30
2019-04-20T12:37:19.077Z,1023.31
2019-04-20T12:38:19.596Z,1023.17
2019-04-20T12:39:22.282Z,1023.23
2019-04-20T12:40:23.973Z,1023.27
2019-04-20T12:41:34.479Z,1023.26
2019-04-20T12:42:30.981Z,1023.21
2019-04-20T12:43:31.890Z,1023.21
2019-04-20T12:44:32.505Z,1023.24
2019-04-20T12:45:33.544Z,1023.24
2019-04-20T12:46:34.094Z,1023.15
2019-04-20T12:47:35.395Z,1023.16
2019-04-20T12:48:36.063Z,1023.11
2019-04-20T12:49:37.790Z,1023.12
2019-04-20T12:50:39.576Z,1023.11
2019-04-20T12:51:48.693Z,1023.09
2019-04-20T12:52:46.600Z,1023.16
2019-04-20T12:53:47.136Z,1023.14
2019-04-20T12:54:48.018Z,1023.12
2019-04-20T12:55:48.533Z,1023.14
2019-04-20T12:56:49.030Z,1023.07
2019-04-20T12:57:50.316Z,1023.10
2019-04-20T12:58:51.666Z,1023.07
2019-04-20T12:59:52.434Z,1023.07
2019-04-20T13:00:54.457Z,1023.03
2019-04-20T13:01:55.393Z,1023.06
2019-04-20T13:02:56.026Z,1023.04
2019-04-20T13:03:57.397Z,1023.01
2019-04-20T13:04:59.434Z,1022.94
2019-04-20T13:05:59.998Z,1022.99
2019-04-20T13:07:01.772Z,1022.95
2019-04-20T13:08:04.139Z,1022.98
2019-04-20T13:09:05.719Z,1022.99
2019-04-20T13:10:07.585Z,1023.02
2019-04-20T13:11:08.718Z,1023.04
2019-04-20T13:12:12.008Z,1022.99
2019-04-20T13:13:14.459Z,1022.99
2019-04-20T13:14:14.948Z,1022.98
2019-04-20T13:15:16.115Z,1022.97
2019-04-20T13:16:16.627Z,1022.96
2019-04-20T13:17:17.113Z,1022.95
2019-04-20T13:18:17.568Z,1022.90
2019-04-20T13:19:19.246Z,1022.95
2019-04-20T13:20:19.811Z,1022.87
2019-04-20T13:21:21.049Z,1022.86
2019-04-20T13:22:21.560Z,1022.82
2019-04-20T13:23:22.552Z,1022.89
2019-04-20T13:24:23.159Z,1022.87
2019-04-20T13:25:23.664Z,1022.85
2019-04-20T13:26:25.077Z,1022.85
2019-04-20T13:27:26.956Z,1022.84
2019-04-20T13:28:28.704Z,1022.81
2019-04-20T13:29:29.422Z,1022.83